Victoria Falls, Zimbabwe
Current Conditions -  °F | °C
As of 2:00 PM on Monday 26 Jan 2015 (Local Time) from FBKE Reporting Station
Scattered Clouds Scattered Clouds  
Wind Chill: 88°   Ceiling: Unl
Heat Index: 88°   Visibility: 6mi
Dew Point: 61°   Wind: 7mph
Humidity: 40%   Direction: 60°ENE
Pressure: 30"   Gusts: NA
Location:  17.93°S, 25.84°E
Report Text: FBKE 261200Z 06006KT 360V120 9999 SCT030 FEW035CB 31/16 Q1016
Loading
Personal Weather Stations






























Interactive Weather Map New forecast layout! Learn more

10-Day Weather Forecast

Advertisements
Track Severe Weather on mobile